sensor_id;sensor_type;location;lat;lon;timestamp;P1;durP1;ratioP1;P2;durP2;ratioP2
5475;SDS011;2760;50.000;9.194;2023-03-04T00:02:08;26.00;;;12.20;;
5475;SDS011;2760;50.000;9.194;2023-03-04T00:04:35;28.70;;;14.10;;
5475;SDS011;2760;50.000;9.194;2023-03-04T00:07:02;31.93;;;13.63;;
5475;SDS011;2760;50.000;9.194;2023-03-04T00:09:29;29.70;;;13.87;;
5475;SDS011;2760;50.000;9.194;2023-03-04T00:11:58;32.03;;;15.43;;
5475;SDS011;2760;50.000;9.194;2023-03-04T00:14:25;29.00;;;14.90;;
5475;SDS011;2760;50.000;9.194;2023-03-04T00:16:52;29.17;;;14.93;;
5475;SDS011;2760;50.000;9.194;2023-03-04T00:19:19;31.80;;;14.50;;
5475;SDS011;2760;50.000;9.194;2023-03-04T00:21:46;34.70;;;15.90;;
5475;SDS011;2760;50.000;9.194;2023-03-04T00:24:13;39.23;;;15.63;;
5475;SDS011;2760;50.000;9.194;2023-03-04T00:26:40;28.57;;;14.10;;
5475;SDS011;2760;50.000;9.194;2023-03-04T00:29:09;29.00;;;14.13;;
5475;SDS011;2760;50.000;9.194;2023-03-04T00:31:37;33.70;;;14.83;;
5475;SDS011;2760;50.000;9.194;2023-03-04T00:34:03;22.60;;;12.17;;
5475;SDS011;2760;50.000;9.194;2023-03-04T00:36:31;27.10;;;13.13;;
5475;SDS011;2760;50.000;9.194;2023-03-04T00:38:58;30.80;;;14.37;;
5475;SDS011;2760;50.000;9.194;2023-03-04T00:41:25;24.97;;;12.77;;
5475;SDS011;2760;50.000;9.194;2023-03-04T00:43:52;25.97;;;13.00;;
5475;SDS011;2760;50.000;9.194;2023-03-04T00:46:20;30.90;;;14.20;;
5475;SDS011;2760;50.000;9.194;2023-03-04T00:48:50;26.73;;;13.47;;
5475;SDS011;2760;50.000;9.194;2023-03-04T00:51:17;31.10;;;14.87;;
5475;SDS011;2760;50.000;9.194;2023-03-04T00:53:44;24.90;;;13.13;;
5475;SDS011;2760;50.000;9.194;2023-03-04T00:56:11;31.50;;;14.93;;
5475;SDS011;2760;50.000;9.194;2023-03-04T00:58:40;29.23;;;14.00;;
5475;SDS011;2760;50.000;9.194;2023-03-04T01:01:08;32.97;;;14.50;;
5475;SDS011;2760;50.000;9.194;2023-03-04T01:03:37;26.03;;;13.83;;
5475;SDS011;2760;50.000;9.194;2023-03-04T01:06:05;23.77;;;12.17;;
5475;SDS011;2760;50.000;9.194;2023-03-04T01:08:33;28.27;;;13.43;;
5475;SDS011;2760;50.000;9.194;2023-03-04T01:11:00;24.07;;;13.30;;
5475;SDS011;2760;50.000;9.194;2023-03-04T01:13:27;33.87;;;14.47;;
5475;SDS011;2760;50.000;9.194;2023-03-04T01:15:54;25.27;;;12.70;;
5475;SDS011;2760;50.000;9.194;2023-03-04T01:18:21;25.13;;;14.07;;
5475;SDS011;2760;50.000;9.194;2023-03-04T01:20:50;26.10;;;12.97;;
5475;SDS011;2760;50.000;9.194;2023-03-04T01:23:17;30.10;;;14.10;;
5475;SDS011;2760;50.000;9.194;2023-03-04T01:25:44;22.93;;;12.97;;
5475;SDS011;2760;50.000;9.194;2023-03-04T01:28:11;22.17;;;12.37;;
5475;SDS011;2760;50.000;9.194;2023-03-04T01:30:39;24.20;;;12.87;;
5475;SDS011;2760;50.000;9.194;2023-03-04T01:33:07;24.50;;;13.20;;
5475;SDS011;2760;50.000;9.194;2023-03-04T01:35:34;25.03;;;13.13;;
5475;SDS011;2760;50.000;9.194;2023-03-04T01:38:03;23.70;;;12.40;;
5475;SDS011;2760;50.000;9.194;2023-03-04T01:40:30;20.83;;;13.17;;
5475;SDS011;2760;50.000;9.194;2023-03-04T01:42:58;27.07;;;15.17;;
5475;SDS011;2760;50.000;9.194;2023-03-04T01:45:26;26.83;;;14.60;;
5475;SDS011;2760;50.000;9.194;2023-03-04T01:47:53;22.07;;;11.80;;
5475;SDS011;2760;50.000;9.194;2023-03-04T01:50:22;26.67;;;12.83;;
5475;SDS011;2760;50.000;9.194;2023-03-04T01:52:54;25.13;;;13.13;;
5475;SDS011;2760;50.000;9.194;2023-03-04T01:55:23;23.67;;;11.37;;
5475;SDS011;2760;50.000;9.194;2023-03-04T01:57:51;27.67;;;13.30;;
5475;SDS011;2760;50.000;9.194;2023-03-04T02:00:23;24.67;;;12.90;;
5475;SDS011;2760;50.000;9.194;2023-03-04T02:02:53;26.07;;;13.10;;
5475;SDS011;2760;50.000;9.194;2023-03-04T02:05:23;23.63;;;12.67;;
5475;SDS011;2760;50.000;9.194;2023-03-04T02:07:51;26.77;;;12.50;;
5475;SDS011;2760;50.000;9.194;2023-03-04T02:10:23;23.13;;;11.50;;
5475;SDS011;2760;50.000;9.194;2023-03-04T02:12:50;23.33;;;12.07;;
5475;SDS011;2760;50.000;9.194;2023-03-04T02:15:18;27.20;;;12.00;;
5475;SDS011;2760;50.000;9.194;2023-03-04T02:17:46;24.57;;;12.93;;
5475;SDS011;2760;50.000;9.194;2023-03-04T02:20:16;18.93;;;11.57;;
5475;SDS011;2760;50.000;9.194;2023-03-04T02:22:53;22.47;;;11.67;;
5475;SDS011;2760;50.000;9.194;2023-03-04T02:25:28;24.90;;;12.53;;
5475;SDS011;2760;50.000;9.194;2023-03-04T02:28:03;28.07;;;13.37;;
5475;SDS011;2760;50.000;9.194;2023-03-04T02:30:30;27.67;;;14.63;;
5475;SDS011;2760;50.000;9.194;2023-03-04T02:32:58;28.47;;;13.03;;
5475;SDS011;2760;50.000;9.194;2023-03-04T02:35:25;26.20;;;12.90;;
5475;SDS011;2760;50.000;9.194;2023-03-04T02:37:53;29.83;;;14.07;;
5475;SDS011;2760;50.000;9.194;2023-03-04T02:40:22;25.33;;;14.33;;
5475;SDS011;2760;50.000;9.194;2023-03-04T02:42:53;27.57;;;14.60;;
5475;SDS011;2760;50.000;9.194;2023-03-04T02:48:14;19.83;;;12.43;;
5475;SDS011;2760;50.000;9.194;2023-03-04T02:50:46;31.93;;;14.50;;
5475;SDS011;2760;50.000;9.194;2023-03-04T02:53:15;28.10;;;14.13;;
5475;SDS011;2760;50.000;9.194;2023-03-04T02:55:43;26.00;;;12.40;;
5475;SDS011;2760;50.000;9.194;2023-03-04T02:58:11;24.43;;;12.93;;
5475;SDS011;2760;50.000;9.194;2023-03-04T03:00:39;32.20;;;15.57;;
5475;SDS011;2760;50.000;9.194;2023-03-04T03:03:09;25.00;;;13.43;;
5475;SDS011;2760;50.000;9.194;2023-03-04T03:05:36;27.23;;;13.23;;
5475;SDS011;2760;50.000;9.194;2023-03-04T03:08:04;25.33;;;13.50;;
5475;SDS011;2760;50.000;9.194;2023-03-04T03:10:31;29.93;;;14.00;;
5475;SDS011;2760;50.000;9.194;2023-03-04T03:12:58;26.07;;;12.80;;
5475;SDS011;2760;50.000;9.194;2023-03-04T03:15:26;25.90;;;13.40;;
5475;SDS011;2760;50.000;9.194;2023-03-04T03:17:54;21.67;;;12.63;;
5475;SDS011;2760;50.000;9.194;2023-03-04T03:20:22;26.17;;;13.43;;
5475;SDS011;2760;50.000;9.194;2023-03-04T03:22:50;27.63;;;13.03;;
5475;SDS011;2760;50.000;9.194;2023-03-04T03:25:17;25.07;;;13.50;;
5475;SDS011;2760;50.000;9.194;2023-03-04T03:27:44;24.73;;;13.13;;
5475;SDS011;2760;50.000;9.194;2023-03-04T03:30:13;27.80;;;14.83;;
5475;SDS011;2760;50.000;9.194;2023-03-04T03:32:43;22.57;;;12.13;;
5475;SDS011;2760;50.000;9.194;2023-03-04T03:35:10;24.13;;;13.13;;
5475;SDS011;2760;50.000;9.194;2023-03-04T03:37:40;26.00;;;14.43;;
5475;SDS011;2760;50.000;9.194;2023-03-04T03:40:08;26.93;;;14.20;;
5475;SDS011;2760;50.000;9.194;2023-03-04T03:42:36;30.27;;;13.83;;
5475;SDS011;2760;50.000;9.194;2023-03-04T03:45:03;28.13;;;13.63;;
5475;SDS011;2760;50.000;9.194;2023-03-04T03:47:30;25.30;;;12.93;;
5475;SDS011;2760;50.000;9.194;2023-03-04T03:49:58;26.17;;;13.90;;
5475;SDS011;2760;50.000;9.194;2023-03-04T03:52:25;28.23;;;13.70;;
5475;SDS011;2760;50.000;9.194;2023-03-04T03:54:53;25.60;;;12.67;;
5475;SDS011;2760;50.000;9.194;2023-03-04T03:57:20;31.60;;;13.40;;
5475;SDS011;2760;50.000;9.194;2023-03-04T03:59:48;27.87;;;13.00;;
5475;SDS011;2760;50.000;9.194;2023-03-04T04:02:15;27.07;;;14.30;;
5475;SDS011;2760;50.000;9.194;2023-03-04T04:04:42;29.23;;;12.73;;
5475;SDS011;2760;50.000;9.194;2023-03-04T04:07:09;29.40;;;12.70;;
5475;SDS011;2760;50.000;9.194;2023-03-04T04:09:36;25.10;;;13.13;;
5475;SDS011;2760;50.000;9.194;2023-03-04T04:12:06;22.77;;;12.20;;
5475;SDS011;2760;50.000;9.194;2023-03-04T04:14:33;21.83;;;13.53;;
5475;SDS011;2760;50.000;9.194;2023-03-04T04:17:01;25.20;;;13.17;;
5475;SDS011;2760;50.000;9.194;2023-03-04T04:19:30;26.63;;;13.03;;
5475;SDS011;2760;50.000;9.194;2023-03-04T04:21:58;22.47;;;12.60;;
5475;SDS011;2760;50.000;9.194;2023-03-04T04:24:25;28.57;;;13.90;;
5475;SDS011;2760;50.000;9.194;2023-03-04T04:26:52;28.87;;;14.20;;
5475;SDS011;2760;50.000;9.194;2023-03-04T04:29:21;27.83;;;13.37;;
5475;SDS011;2760;50.000;9.194;2023-03-04T04:31:48;25.07;;;13.17;;
5475;SDS011;2760;50.000;9.194;2023-03-04T04:34:15;32.23;;;13.27;;
5475;SDS011;2760;50.000;9.194;2023-03-04T04:36:42;25.90;;;13.20;;
5475;SDS011;2760;50.000;9.194;2023-03-04T04:39:09;26.03;;;13.77;;
5475;SDS011;2760;50.000;9.194;2023-03-04T04:41:37;26.70;;;14.60;;
5475;SDS011;2760;50.000;9.194;2023-03-04T04:44:05;33.37;;;16.50;;
5475;SDS011;2760;50.000;9.194;2023-03-04T04:46:35;28.53;;;14.77;;
5475;SDS011;2760;50.000;9.194;2023-03-04T04:49:03;29.43;;;15.03;;
5475;SDS011;2760;50.000;9.194;2023-03-04T04:51:31;34.13;;;15.20;;
5475;SDS011;2760;50.000;9.194;2023-03-04T04:54:00;27.67;;;14.37;;
5475;SDS011;2760;50.000;9.194;2023-03-04T04:56:27;27.70;;;14.90;;
5475;SDS011;2760;50.000;9.194;2023-03-04T04:58:55;28.03;;;13.70;;
5475;SDS011;2760;50.000;9.194;2023-03-04T05:01:23;26.57;;;13.43;;
5475;SDS011;2760;50.000;9.194;2023-03-04T05:03:53;28.93;;;14.50;;
5475;SDS011;2760;50.000;9.194;2023-03-04T05:06:21;34.00;;;15.17;;
5475;SDS011;2760;50.000;9.194;2023-03-04T05:08:49;28.97;;;14.53;;
5475;SDS011;2760;50.000;9.194;2023-03-04T05:11:18;33.97;;;15.90;;
5475;SDS011;2760;50.000;9.194;2023-03-04T05:13:45;33.53;;;16.50;;
5475;SDS011;2760;50.000;9.194;2023-03-04T05:16:14;30.03;;;15.03;;
5475;SDS011;2760;50.000;9.194;2023-03-04T05:18:42;29.80;;;16.10;;
5475;SDS011;2760;50.000;9.194;2023-03-04T05:21:11;38.03;;;16.33;;
5475;SDS011;2760;50.000;9.194;2023-03-04T05:23:39;34.07;;;15.20;;
5475;SDS011;2760;50.000;9.194;2023-03-04T05:26:08;32.20;;;15.33;;
5475;SDS011;2760;50.000;9.194;2023-03-04T05:28:37;28.30;;;15.23;;
5475;SDS011;2760;50.000;9.194;2023-03-04T05:31:04;31.90;;;16.17;;
5475;SDS011;2760;50.000;9.194;2023-03-04T05:33:32;32.87;;;15.67;;
5475;SDS011;2760;50.000;9.194;2023-03-04T05:36:00;41.87;;;16.90;;
5475;SDS011;2760;50.000;9.194;2023-03-04T05:38:30;35.77;;;17.70;;
5475;SDS011;2760;50.000;9.194;2023-03-04T05:40:59;38.37;;;17.80;;
5475;SDS011;2760;50.000;9.194;2023-03-04T05:43:27;37.47;;;17.80;;
5475;SDS011;2760;50.000;9.194;2023-03-04T05:45:56;36.73;;;16.37;;
5475;SDS011;2760;50.000;9.194;2023-03-04T05:48:23;32.97;;;16.10;;
5475;SDS011;2760;50.000;9.194;2023-03-04T05:50:53;32.80;;;16.20;;
5475;SDS011;2760;50.000;9.194;2023-03-04T05:53:20;37.63;;;17.83;;
5475;SDS011;2760;50.000;9.194;2023-03-04T05:55:49;30.33;;;15.90;;
5475;SDS011;2760;50.000;9.194;2023-03-04T05:58:17;33.07;;;18.03;;
5475;SDS011;2760;50.000;9.194;2023-03-04T06:00:44;43.47;;;18.10;;
5475;SDS011;2760;50.000;9.194;2023-03-04T06:03:13;35.37;;;16.97;;
5475;SDS011;2760;50.000;9.194;2023-03-04T06:05:41;38.53;;;18.10;;
5475;SDS011;2760;50.000;9.194;2023-03-04T06:08:08;32.07;;;16.40;;
5475;SDS011;2760;50.000;9.194;2023-03-04T06:10:35;39.23;;;17.27;;
5475;SDS011;2760;50.000;9.194;2023-03-04T06:13:04;34.77;;;15.00;;
5475;SDS011;2760;50.000;9.194;2023-03-04T06:15:31;36.90;;;15.90;;
5475;SDS011;2760;50.000;9.194;2023-03-04T06:17:59;41.67;;;18.27;;
5475;SDS011;2760;50.000;9.194;2023-03-04T06:20:26;40.90;;;17.40;;
5475;SDS011;2760;50.000;9.194;2023-03-04T06:22:53;35.97;;;17.37;;
5475;SDS011;2760;50.000;9.194;2023-03-04T06:25:20;40.03;;;18.07;;
5475;SDS011;2760;50.000;9.194;2023-03-04T06:27:48;46.20;;;19.40;;
5475;SDS011;2760;50.000;9.194;2023-03-04T06:30:17;39.30;;;17.60;;
5475;SDS011;2760;50.000;9.194;2023-03-04T06:32:44;34.97;;;17.90;;
5475;SDS011;2760;50.000;9.194;2023-03-04T06:35:12;35.50;;;17.10;;
5475;SDS011;2760;50.000;9.194;2023-03-04T06:37:40;41.03;;;18.30;;
5475;SDS011;2760;50.000;9.194;2023-03-04T06:40:08;32.80;;;15.97;;
5475;SDS011;2760;50.000;9.194;2023-03-04T06:42:36;32.50;;;16.00;;
5475;SDS011;2760;50.000;9.194;2023-03-04T06:45:04;40.17;;;18.20;;
5475;SDS011;2760;50.000;9.194;2023-03-04T06:47:34;37.47;;;16.70;;
5475;SDS011;2760;50.000;9.194;2023-03-04T06:50:02;38.73;;;17.10;;
5475;SDS011;2760;50.000;9.194;2023-03-04T06:52:30;41.87;;;17.30;;
5475;SDS011;2760;50.000;9.194;2023-03-04T06:54:57;33.53;;;17.63;;
5475;SDS011;2760;50.000;9.194;2023-03-04T06:57:24;34.90;;;16.57;;
5475;SDS011;2760;50.000;9.194;2023-03-04T06:59:51;36.00;;;16.10;;
5475;SDS011;2760;50.000;9.194;2023-03-04T07:02:18;42.47;;;18.47;;
5475;SDS011;2760;50.000;9.194;2023-03-04T07:04:48;28.70;;;16.80;;
5475;SDS011;2760;50.000;9.194;2023-03-04T07:07:16;42.13;;;19.20;;
5475;SDS011;2760;50.000;9.194;2023-03-04T07:09:43;39.03;;;17.57;;
5475;SDS011;2760;50.000;9.194;2023-03-04T07:12:10;49.30;;;17.47;;
5475;SDS011;2760;50.000;9.194;2023-03-04T07:14:36;45.53;;;19.20;;
5475;SDS011;2760;50.000;9.194;2023-03-04T07:17:03;39.13;;;18.47;;
5475;SDS011;2760;50.000;9.194;2023-03-04T07:19:30;42.03;;;18.00;;
5475;SDS011;2760;50.000;9.194;2023-03-04T07:21:59;34.60;;;17.87;;
5475;SDS011;2760;50.000;9.194;2023-03-04T07:24:26;36.20;;;18.30;;
5475;SDS011;2760;50.000;9.194;2023-03-04T07:26:53;43.97;;;18.13;;
5475;SDS011;2760;50.000;9.194;2023-03-04T07:29:20;33.60;;;18.40;;
5475;SDS011;2760;50.000;9.194;2023-03-04T07:31:47;38.73;;;19.67;;
5475;SDS011;2760;50.000;9.194;2023-03-04T07:34:14;40.57;;;18.63;;
5475;SDS011;2760;50.000;9.194;2023-03-04T07:36:41;41.83;;;21.70;;
5475;SDS011;2760;50.000;9.194;2023-03-04T07:39:11;34.07;;;17.23;;
5475;SDS011;2760;50.000;9.194;2023-03-04T07:41:38;36.80;;;17.90;;
5475;SDS011;2760;50.000;9.194;2023-03-04T07:44:06;43.17;;;19.10;;
5475;SDS011;2760;50.000;9.194;2023-03-04T07:46:34;43.37;;;18.77;;
5475;SDS011;2760;50.000;9.194;2023-03-04T07:49:01;40.93;;;20.20;;
5475;SDS011;2760;50.000;9.194;2023-03-04T07:51:29;45.20;;;19.03;;
5475;SDS011;2760;50.000;9.194;2023-03-04T07:53:56;36.47;;;18.07;;
5475;SDS011;2760;50.000;9.194;2023-03-04T07:56:27;40.33;;;19.73;;
5475;SDS011;2760;50.000;9.194;2023-03-04T07:58:55;45.97;;;20.13;;
5475;SDS011;2760;50.000;9.194;2023-03-04T08:01:24;43.00;;;20.73;;
5475;SDS011;2760;50.000;9.194;2023-03-04T08:03:52;48.10;;;22.10;;
5475;SDS011;2760;50.000;9.194;2023-03-04T08:06:19;40.70;;;19.93;;
5475;SDS011;2760;50.000;9.194;2023-03-04T08:08:47;44.70;;;19.73;;
5475;SDS011;2760;50.000;9.194;2023-03-04T08:11:15;47.17;;;21.13;;
5475;SDS011;2760;50.000;9.194;2023-03-04T08:13:46;43.00;;;22.87;;
5475;SDS011;2760;50.000;9.194;2023-03-04T08:16:13;44.53;;;21.77;;
5475;SDS011;2760;50.000;9.194;2023-03-04T08:18:42;41.43;;;20.20;;
5475;SDS011;2760;50.000;9.194;2023-03-04T08:21:09;43.43;;;22.20;;
5475;SDS011;2760;50.000;9.194;2023-03-04T08:23:37;45.17;;;21.47;;
5475;SDS011;2760;50.000;9.194;2023-03-04T08:26:06;42.13;;;19.00;;
5475;SDS011;2760;50.000;9.194;2023-03-04T08:28:34;39.50;;;20.33;;
5475;SDS011;2760;50.000;9.194;2023-03-04T08:31:03;41.20;;;21.83;;
5475;SDS011;2760;50.000;9.194;2023-03-04T08:33:30;42.90;;;20.40;;
5475;SDS011;2760;50.000;9.194;2023-03-04T08:35:58;46.60;;;22.07;;
5475;SDS011;2760;50.000;9.194;2023-03-04T08:38:25;41.60;;;18.90;;
5475;SDS011;2760;50.000;9.194;2023-03-04T08:40:52;49.80;;;22.73;;
5475;SDS011;2760;50.000;9.194;2023-03-04T08:43:20;44.80;;;19.97;;
5475;SDS011;2760;50.000;9.194;2023-03-04T08:45:47;47.07;;;23.03;;
5475;SDS011;2760;50.000;9.194;2023-03-04T08:48:16;49.80;;;17.93;;
5475;SDS011;2760;50.000;9.194;2023-03-04T08:50:43;42.23;;;19.47;;
5475;SDS011;2760;50.000;9.194;2023-03-04T08:53:10;44.70;;;20.93;;
5475;SDS011;2760;50.000;9.194;2023-03-04T08:55:37;46.00;;;19.40;;
5475;SDS011;2760;50.000;9.194;2023-03-04T08:58:06;48.50;;;19.07;;
5475;SDS011;2760;50.000;9.194;2023-03-04T09:00:35;46.70;;;21.23;;
5475;SDS011;2760;50.000;9.194;2023-03-04T09:03:03;49.80;;;20.60;;
5475;SDS011;2760;50.000;9.194;2023-03-04T09:05:32;51.57;;;22.30;;
5475;SDS011;2760;50.000;9.194;2023-03-04T09:08:00;40.37;;;19.97;;
5475;SDS011;2760;50.000;9.194;2023-03-04T09:10:27;42.07;;;20.77;;
5475;SDS011;2760;50.000;9.194;2023-03-04T09:12:54;47.63;;;21.50;;
5475;SDS011;2760;50.000;9.194;2023-03-04T09:15:21;42.67;;;22.60;;
5475;SDS011;2760;50.000;9.194;2023-03-04T09:17:48;44.97;;;20.77;;
5475;SDS011;2760;50.000;9.194;2023-03-04T09:20:17;42.50;;;21.40;;
5475;SDS011;2760;50.000;9.194;2023-03-04T09:22:46;43.10;;;20.80;;
5475;SDS011;2760;50.000;9.194;2023-03-04T09:25:13;50.80;;;22.20;;
5475;SDS011;2760;50.000;9.194;2023-03-04T09:30:27;45.87;;;21.20;;
5475;SDS011;2760;50.000;9.194;2023-03-04T09:32:54;48.97;;;21.77;;
5475;SDS011;2760;50.000;9.194;2023-03-04T09:35:21;41.57;;;19.53;;
5475;SDS011;2760;50.000;9.194;2023-03-04T09:37:50;39.83;;;19.00;;
5475;SDS011;2760;50.000;9.194;2023-03-04T09:40:18;40.60;;;20.80;;
5475;SDS011;2760;50.000;9.194;2023-03-04T09:42:47;52.27;;;23.10;;
5475;SDS011;2760;50.000;9.194;2023-03-04T09:45:18;42.57;;;19.67;;
5475;SDS011;2760;50.000;9.194;2023-03-04T09:47:46;39.20;;;21.13;;
5475;SDS011;2760;50.000;9.194;2023-03-04T09:50:14;41.57;;;21.27;;
5475;SDS011;2760;50.000;9.194;2023-03-04T09:52:46;48.40;;;21.30;;
5475;SDS011;2760;50.000;9.194;2023-03-04T09:55:29;34.23;;;18.47;;
5475;SDS011;2760;50.000;9.194;2023-03-04T09:57:59;39.90;;;20.30;;
5475;SDS011;2760;50.000;9.194;2023-03-04T10:00:34;42.60;;;20.67;;
5475;SDS011;2760;50.000;9.194;2023-03-04T10:03:11;43.97;;;20.27;;
5475;SDS011;2760;50.000;9.194;2023-03-04T10:05:45;34.60;;;19.40;;
5475;SDS011;2760;50.000;9.194;2023-03-04T10:08:26;39.60;;;20.80;;
5475;SDS011;2760;50.000;9.194;2023-03-04T10:11:05;39.07;;;20.87;;
5475;SDS011;2760;50.000;9.194;2023-03-04T10:13:39;45.80;;;20.93;;
5475;SDS011;2760;50.000;9.194;2023-03-04T10:16:17;36.27;;;20.27;;
5475;SDS011;2760;50.000;9.194;2023-03-04T10:18:47;41.10;;;19.83;;
5475;SDS011;2760;50.000;9.194;2023-03-04T10:21:19;51.50;;;19.90;;
5475;SDS011;2760;50.000;9.194;2023-03-04T10:23:51;36.07;;;18.87;;
5475;SDS011;2760;50.000;9.194;2023-03-04T10:26:19;43.70;;;19.90;;
5475;SDS011;2760;50.000;9.194;2023-03-04T10:28:48;47.10;;;19.77;;
5475;SDS011;2760;50.000;9.194;2023-03-04T10:31:18;31.90;;;18.13;;
5475;SDS011;2760;50.000;9.194;2023-03-04T10:33:53;42.63;;;18.53;;
5475;SDS011;2760;50.000;9.194;2023-03-04T10:36:31;36.93;;;18.80;;
5475;SDS011;2760;50.000;9.194;2023-03-04T10:39:06;38.43;;;18.40;;
5475;SDS011;2760;50.000;9.194;2023-03-04T10:41:36;41.20;;;17.50;;
5475;SDS011;2760;50.000;9.194;2023-03-04T10:44:11;30.80;;;15.73;;
5475;SDS011;2760;50.000;9.194;2023-03-04T10:46:42;33.93;;;17.07;;
5475;SDS011;2760;50.000;9.194;2023-03-04T10:49:10;47.50;;;17.20;;
5475;SDS011;2760;50.000;9.194;2023-03-04T10:51:42;40.87;;;16.67;;
5475;SDS011;2760;50.000;9.194;2023-03-04T10:54:19;32.40;;;16.23;;
5475;SDS011;2760;50.000;9.194;2023-03-04T10:56:57;33.77;;;16.30;;
5475;SDS011;2760;50.000;9.194;2023-03-04T10:59:31;34.57;;;15.67;;
5475;SDS011;2760;50.000;9.194;2023-03-04T11:02:12;26.77;;;15.93;;
5475;SDS011;2760;50.000;9.194;2023-03-04T11:04:41;33.40;;;18.57;;
5475;SDS011;2760;50.000;9.194;2023-03-04T11:07:08;38.00;;;16.60;;
5475;SDS011;2760;50.000;9.194;2023-03-04T11:09:37;39.87;;;15.40;;
5475;SDS011;2760;50.000;9.194;2023-03-04T11:12:08;45.57;;;17.00;;
5475;SDS011;2760;50.000;9.194;2023-03-04T11:14:39;29.87;;;16.20;;
5475;SDS011;2760;50.000;9.194;2023-03-04T11:17:17;32.90;;;15.77;;
5475;SDS011;2760;50.000;9.194;2023-03-04T11:19:47;33.70;;;13.97;;
5475;SDS011;2760;50.000;9.194;2023-03-04T11:22:17;30.67;;;14.93;;
5475;SDS011;2760;50.000;9.194;2023-03-04T11:24:49;37.03;;;16.20;;
5475;SDS011;2760;50.000;9.194;2023-03-04T11:27:23;33.77;;;15.60;;
5475;SDS011;2760;50.000;9.194;2023-03-04T11:29:57;36.80;;;15.47;;
5475;SDS011;2760;50.000;9.194;2023-03-04T11:32:30;29.07;;;15.10;;
5475;SDS011;2760;50.000;9.194;2023-03-04T11:35:04;33.93;;;14.97;;
5475;SDS011;2760;50.000;9.194;2023-03-04T11:37:34;29.50;;;15.50;;
5475;SDS011;2760;50.000;9.194;2023-03-04T11:40:09;39.17;;;17.00;;
5475;SDS011;2760;50.000;9.194;2023-03-04T11:42:39;31.30;;;15.57;;
5475;SDS011;2760;50.000;9.194;2023-03-04T11:45:11;32.17;;;16.57;;
5475;SDS011;2760;50.000;9.194;2023-03-04T11:47:41;41.57;;;15.17;;
5475;SDS011;2760;50.000;9.194;2023-03-04T11:50:20;39.60;;;15.60;;
5475;SDS011;2760;50.000;9.194;2023-03-04T11:53:03;30.40;;;15.63;;
5475;SDS011;2760;50.000;9.194;2023-03-04T11:55:44;31.30;;;15.00;;
5475;SDS011;2760;50.000;9.194;2023-03-04T11:58:24;31.10;;;14.20;;
5475;SDS011;2760;50.000;9.194;2023-03-04T12:01:07;28.70;;;15.33;;
5475;SDS011;2760;50.000;9.194;2023-03-04T12:03:42;30.33;;;12.90;;
5475;SDS011;2760;50.000;9.194;2023-03-04T12:06:22;35.33;;;15.20;;
5475;SDS011;2760;50.000;9.194;2023-03-04T12:09:02;29.57;;;12.20;;
5475;SDS011;2760;50.000;9.194;2023-03-04T12:11:43;43.27;;;15.70;;
5475;SDS011;2760;50.000;9.194;2023-03-04T12:14:23;30.37;;;12.70;;
5475;SDS011;2760;50.000;9.194;2023-03-04T12:17:08;29.60;;;13.00;;
5475;SDS011;2760;50.000;9.194;2023-03-04T12:19:54;27.63;;;13.20;;
5475;SDS011;2760;50.000;9.194;2023-03-04T12:22:41;26.27;;;13.47;;
5475;SDS011;2760;50.000;9.194;2023-03-04T12:25:23;31.90;;;13.83;;
5475;SDS011;2760;50.000;9.194;2023-03-04T12:28:16;37.30;;;23.20;;
5475;SDS011;2760;50.000;9.194;2023-03-04T12:34:02;40.73;;;14.40;;
5475;SDS011;2760;50.000;9.194;2023-03-04T12:36:54;35.60;;;15.20;;
5475;SDS011;2760;50.000;9.194;2023-03-04T12:39:35;43.27;;;14.53;;
5475;SDS011;2760;50.000;9.194;2023-03-04T12:42:09;25.50;;;10.60;;
5475;SDS011;2760;50.000;9.194;2023-03-04T12:44:52;34.93;;;12.30;;
5475;SDS011;2760;50.000;9.194;2023-03-04T12:47:29;24.07;;;10.57;;
5475;SDS011;2760;50.000;9.194;2023-03-04T12:50:12;23.43;;;11.43;;
5475;SDS011;2760;50.000;9.194;2023-03-04T12:52:57;30.63;;;11.50;;
5475;SDS011;2760;50.000;9.194;2023-03-04T12:55:35;35.73;;;10.33;;
5475;SDS011;2760;50.000;9.194;2023-03-04T12:58:04;33.50;;;11.33;;
5475;SDS011;2760;50.000;9.194;2023-03-04T13:00:39;20.20;;;10.00;;
5475;SDS011;2760;50.000;9.194;2023-03-04T13:03:16;31.13;;;11.60;;
5475;SDS011;2760;50.000;9.194;2023-03-04T13:06:01;35.37;;;10.30;;
5475;SDS011;2760;50.000;9.194;2023-03-04T13:08:40;29.87;;;17.80;;
5475;SDS011;2760;50.000;9.194;2023-03-04T13:11:37;34.37;;;13.03;;
5475;SDS011;2760;50.000;9.194;2023-03-04T13:17:01;23.23;;;11.63;;
5475;SDS011;2760;50.000;9.194;2023-03-04T13:20:10;23.23;;;12.33;;
5475;SDS011;2760;50.000;9.194;2023-03-04T13:22:45;27.67;;;10.97;;
5475;SDS011;2760;50.000;9.194;2023-03-04T13:28:16;22.63;;;11.07;;
5475;SDS011;2760;50.000;9.194;2023-03-04T13:33:59;21.73;;;10.43;;
5475;SDS011;2760;50.000;9.194;2023-03-04T13:39:25;25.47;;;11.70;;
5475;SDS011;2760;50.000;9.194;2023-03-04T13:41:54;26.87;;;10.40;;
5475;SDS011;2760;50.000;9.194;2023-03-04T13:44:32;29.30;;;12.57;;
5475;SDS011;2760;50.000;9.194;2023-03-04T13:47:15;22.13;;;10.97;;
5475;SDS011;2760;50.000;9.194;2023-03-04T13:49:47;31.03;;;12.37;;
5475;SDS011;2760;50.000;9.194;2023-03-04T13:52:35;30.67;;;11.27;;
5475;SDS011;2760;50.000;9.194;2023-03-04T13:58:01;25.07;;;11.70;;
5475;SDS011;2760;50.000;9.194;2023-03-04T14:00:44;21.73;;;11.23;;
5475;SDS011;2760;50.000;9.194;2023-03-04T14:03:17;27.03;;;10.43;;
5475;SDS011;2760;50.000;9.194;2023-03-04T14:05:48;32.53;;;11.70;;
5475;SDS011;2760;50.000;9.194;2023-03-04T14:08:35;23.00;;;11.70;;
5475;SDS011;2760;50.000;9.194;2023-03-04T14:11:02;34.73;;;11.03;;
5475;SDS011;2760;50.000;9.194;2023-03-04T14:13:29;27.60;;;11.73;;
5475;SDS011;2760;50.000;9.194;2023-03-04T14:15:57;25.73;;;10.30;;
5475;SDS011;2760;50.000;9.194;2023-03-04T14:18:25;28.50;;;10.87;;
5475;SDS011;2760;50.000;9.194;2023-03-04T14:20:55;30.83;;;11.10;;
5475;SDS011;2760;50.000;9.194;2023-03-04T14:23:25;28.93;;;11.80;;
5475;SDS011;2760;50.000;9.194;2023-03-04T14:26:07;22.30;;;10.67;;
5475;SDS011;2760;50.000;9.194;2023-03-04T14:28:43;27.47;;;11.60;;
5475;SDS011;2760;50.000;9.194;2023-03-04T14:31:15;19.80;;;10.70;;
5475;SDS011;2760;50.000;9.194;2023-03-04T14:33:46;27.47;;;11.07;;
5475;SDS011;2760;50.000;9.194;2023-03-04T14:36:16;21.00;;;10.67;;
5475;SDS011;2760;50.000;9.194;2023-03-04T14:38:48;30.43;;;11.47;;
5475;SDS011;2760;50.000;9.194;2023-03-04T14:41:20;21.13;;;10.70;;
5475;SDS011;2760;50.000;9.194;2023-03-04T14:43:53;28.30;;;11.67;;
5475;SDS011;2760;50.000;9.194;2023-03-04T14:46:25;24.07;;;11.17;;
5475;SDS011;2760;50.000;9.194;2023-03-04T14:48:58;21.77;;;10.00;;
5475;SDS011;2760;50.000;9.194;2023-03-04T14:51:32;23.60;;;10.50;;
5475;SDS011;2760;50.000;9.194;2023-03-04T14:56:56;34.00;;;13.60;;
5475;SDS011;2760;50.000;9.194;2023-03-04T14:59:28;31.10;;;11.30;;
5475;SDS011;2760;50.000;9.194;2023-03-04T15:02:17;23.90;;;12.33;;
5475;SDS011;2760;50.000;9.194;2023-03-04T15:04:54;28.73;;;13.07;;
5475;SDS011;2760;50.000;9.194;2023-03-04T15:07:24;23.90;;;10.60;;
5475;SDS011;2760;50.000;9.194;2023-03-04T15:09:55;22.60;;;10.47;;
5475;SDS011;2760;50.000;9.194;2023-03-04T15:12:24;25.17;;;11.30;;
5475;SDS011;2760;50.000;9.194;2023-03-04T15:14:53;24.47;;;10.83;;
5475;SDS011;2760;50.000;9.194;2023-03-04T15:17:28;25.63;;;10.50;;
5475;SDS011;2760;50.000;9.194;2023-03-04T15:20:17;33.47;;;13.47;;
5475;SDS011;2760;50.000;9.194;2023-03-04T15:23:04;30.27;;;13.43;;
5475;SDS011;2760;50.000;9.194;2023-03-04T15:25:34;31.00;;;13.63;;
5475;SDS011;2760;50.000;9.194;2023-03-04T15:28:01;24.80;;;12.03;;
5475;SDS011;2760;50.000;9.194;2023-03-04T15:30:29;21.20;;;10.47;;
5475;SDS011;2760;50.000;9.194;2023-03-04T15:32:57;24.57;;;11.70;;
5475;SDS011;2760;50.000;9.194;2023-03-04T15:35:26;29.40;;;11.73;;